Time;durP1;ratioP1;P1;durP2;ratioP2;P2;SDS_P1;SDS_P2;PMS_P1;PMS_P2;Temp;Humidity;BMP_temperature;BMP_pressure;BME280_temperature;BME280_humidity;BME280_pressure;Samples;Min_cycle;Max_cycle;Signal;HPM_P1;HPM_P2
2022/10/13 00:01:59;;;;;;;9.88;5.68;;;;;;;25.78;19.92;99012.75;5102432;28;20114;-78
2022/10/13 00:04:26;;;;;;;13.88;6.53;;;;;;;25.75;20.09;99002.34;5111015;28;20043;-78
2022/10/13 00:06:52;;;;;;;13.82;7.15;;;;;;;25.23;20.91;99000.97;5103753;28;20365;-78
2022/10/13 00:09:18;;;;;;;11.90;7.00;;;;;;;24.96;21.03;98995.28;5107615;28;20503;-78
2022/10/13 00:11:44;;;;;;;12.93;6.75;;;;;;;24.76;21.50;98999.06;5107621;28;20556;-78
2022/10/13 00:14:10;;;;;;;12.27;6.93;;;;;;;24.92;21.34;98994.53;5110888;28;20479;-78
2022/10/13 00:16:36;;;;;;;12.60;7.03;;;;;;;24.84;21.70;98992.19;5112618;27;20070;-78
2022/10/13 00:19:03;;;;;;;14.95;8.27;;;;;;;24.78;21.53;98999.47;5114700;27;20106;-78
2022/10/13 00:21:29;;;;;;;13.27;6.85;;;;;;;24.92;21.58;98985.28;5110240;28;20074;-78
2022/10/13 00:23:55;;;;;;;14.50;6.93;;;;;;;24.94;21.53;98992.09;5111828;28;20091;-78
2022/10/13 00:26:24;;;;;;;14.75;6.38;;;;;;;24.97;21.34;98994.03;5114510;28;20039;-78
2022/10/13 00:28:51;;;;;;;10.32;6.53;;;;;;;24.63;21.62;98993.16;5114075;28;20518;-78
2022/10/13 00:31:21;;;;;;;9.82;6.63;;;;;;;24.78;21.93;98986.25;5113953;28;20035;-78
2022/10/13 00:33:48;;;;;;;13.18;7.30;;;;;;;24.96;21.55;98997.28;5108219;28;20055;-78
2022/10/13 00:36:14;;;;;;;11.07;7.00;;;;;;;24.50;21.88;98984.50;5110511;28;20032;-78
2022/10/13 00:38:41;;;;;;;13.13;6.57;;;;;;;24.33;21.83;98981.81;5104826;28;20578;-77
2022/10/13 00:41:07;;;;;;;12.35;7.10;;;;;;;24.50;21.66;98980.88;5101669;28;20039;-78
2022/10/13 00:43:48;;;;;;;10.18;7.13;;;;;;;24.61;21.63;98984.38;5096255;28;20024;-77
2022/10/13 00:46:15;;;;;;;12.20;6.18;;;;;;;24.45;21.86;98970.09;5101376;28;22136;-78
2022/10/13 00:48:43;;;;;;;14.98;6.93;;;;;;;23.99;22.66;98978.88;5109703;28;20065;-78
2022/10/13 00:51:11;;;;;;;14.98;6.82;;;;;;;24.03;22.50;98985.25;5114618;28;20030;-78
2022/10/13 00:53:39;;;;;;;13.02;6.82;;;;;;;24.23;22.28;98979.88;5100144;28;20107;-77
2022/10/13 00:56:08;;;;;;;9.23;5.57;;;;;;;24.89;21.19;98980.50;5097144;28;20088;-78
2022/10/13 00:58:38;;;;;;;10.93;6.70;;;;;;;25.31;20.21;98980.00;5102390;28;20116;-78
2022/10/13 01:01:05;;;;;;;8.00;6.13;;;;;;;24.78;21.49;98971.41;5110151;28;20106;-79
2022/10/13 01:03:32;;;;;;;11.50;6.97;;;;;;;23.94;22.30;98976.50;5111533;28;20035;-78
2022/10/13 01:06:01;;;;;;;12.32;6.70;;;;;;;23.46;22.82;98981.19;5106279;28;20441;-78
2022/10/13 01:08:29;;;;;;;14.45;7.05;;;;;;;23.34;23.16;98968.41;5108610;28;20027;-78
2022/10/13 01:11:10;;;;;;;11.65;7.97;;;;;;;23.30;23.17;98971.22;5103967;28;20062;-78
2022/10/13 01:14:04;;;;;;;9.65;6.35;;;;;;;23.62;23.11;98965.47;5100994;28;22602;-77
2022/10/13 01:16:45;;;;;;;11.90;6.68;;;;;;;23.75;22.84;98957.41;5107599;28;20028;-77
2022/10/13 01:19:42;;;;;;;14.05;7.28;;;;;;;23.60;22.49;98959.47;5105900;28;20034;-78
2022/10/13 01:22:38;;;;;;;14.15;7.40;;;;;;;23.84;22.50;98966.13;5103769;28;22304;-77
2022/10/13 01:25:07;;;;;;;14.57;6.32;;;;;;;24.33;21.62;98962.16;5103689;28;20059;-78
2022/10/13 01:28:00;;;;;;;9.38;6.43;;;;;;;24.60;21.04;98955.47;5111994;28;20035;-78
2022/10/13 01:30:29;;;;;;;10.57;6.70;;;;;;;25.08;20.42;98960.22;5099161;28;20474;-78
2022/10/13 01:33:16;;;;;;;10.65;6.57;;;;;;;25.22;20.26;98957.22;5101111;28;20123;-78
2022/10/13 01:36:01;;;;;;;9.40;5.97;;;;;;;25.35;19.70;98961.88;5112180;28;20032;-78
2022/10/13 01:38:53;;;;;;;12.15;6.82;;;;;;;25.00;20.17;98951.06;5108415;28;20059;-77
2022/10/13 01:41:32;;;;;;;10.38;5.40;;;;;;;25.05;20.23;98950.59;5110416;28;20123;-78
2022/10/13 01:44:15;;;;;;;15.65;7.65;;;;;;;25.00;20.66;98951.06;5106009;28;20027;-78
2022/10/13 01:46:43;;;;;;;16.25;7.80;;;;;;;24.64;21.14;98947.81;5101589;28;20040;-78
2022/10/13 01:49:13;;;;;;;10.23;6.32;;;;;;;24.96;20.82;98944.69;5112033;28;20138;-78
2022/10/13 01:51:41;;;;;;;9.45;5.93;;;;;;;24.92;21.01;98943.16;5120203;27;20500;-78
2022/10/13 01:54:07;;;;;;;11.15;6.30;;;;;;;24.72;21.07;98935.31;5103010;28;20487;-78
2022/10/13 01:56:33;;;;;;;8.20;5.47;;;;;;;24.94;20.93;98941.50;5103773;28;20032;-78
2022/10/13 01:59:06;;;;;;;8.10;5.75;;;;;;;25.22;20.18;98934.75;5094751;28;20089;-78
2022/10/13 02:01:50;;;;;;;10.85;5.28;;;;;;;25.24;20.21;98933.09;5104826;28;20032;-78
2022/10/13 02:04:41;;;;;;;10.88;5.57;;;;;;;25.41;20.28;98936.91;5104694;28;20106;-78
2022/10/13 02:07:23;;;;;;;11.02;5.45;;;;;;;25.55;19.73;98941.56;5108396;28;20032;-78
2022/10/13 02:09:58;;;;;;;11.95;5.88;;;;;;;25.52;19.89;98937.56;5100874;28;20060;-77
2022/10/13 02:12:38;;;;;;;10.18;5.18;;;;;;;25.59;19.45;98939.47;5107348;28;20506;-78
2022/10/13 02:15:08;;;;;;;10.82;5.68;;;;;;;25.49;19.61;98926.34;5114678;27;20600;-78
2022/10/13 02:17:34;;;;;;;7.03;4.97;;;;;;;25.56;19.14;98927.06;5107417;27;20035;-78
2022/10/13 02:20:04;;;;;;;8.50;4.85;;;;;;;25.59;19.22;98925.41;5115339;27;20024;-78
2022/10/13 02:22:35;;;;;;;10.60;5.60;;;;;;;25.53;19.74;98927.94;5113937;28;20055;-78
2022/10/13 02:25:01;;;;;;;8.50;5.60;;;;;;;25.45;19.50;98925.63;5112193;28;20106;-77
2022/10/13 02:27:27;;;;;;;10.32;5.05;;;;;;;25.42;19.21;98925.22;5110480;28;20032;-78
2022/10/13 02:29:56;;;;;;;7.50;4.68;;;;;;;25.29;19.22;98924.22;5118617;27;20031;-78
2022/10/13 02:32:22;;;;;;;8.73;5.50;;;;;;;25.34;19.28;98917.31;5116139;27;20395;-78
2022/10/13 02:34:50;;;;;;;8.73;5.28;;;;;;;25.41;19.47;98914.41;5116090;28;20031;-78
2022/10/13 02:37:17;;;;;;;8.23;4.28;;;;;;;25.45;19.40;98920.81;5112272;27;20036;-78
2022/10/13 02:39:43;;;;;;;8.15;4.88;;;;;;;25.44;19.14;98912.78;5112964;28;20409;-78
2022/10/13 02:42:09;;;;;;;9.15;4.90;;;;;;;25.46;19.06;98918.78;5113337;28;20479;-78
2022/10/13 02:44:35;;;;;;;7.15;4.75;;;;;;;25.27;19.05;98920.22;5112302;28;20061;-77
2022/10/13 02:47:01;;;;;;;7.75;3.90;;;;;;;25.30;18.71;98920.16;5127350;27;20031;-78
2022/10/13 02:49:27;;;;;;;8.02;4.35;;;;;;;25.31;18.56;98912.53;5114993;27;20032;-78
2022/10/13 02:51:53;;;;;;;9.40;5.35;;;;;;;25.46;18.31;98913.16;5130107;27;20058;-77
2022/10/13 02:54:20;;;;;;;10.70;5.55;;;;;;;25.50;18.08;98917.53;5106318;28;20364;-78
2022/10/13 02:56:46;;;;;;;7.95;5.05;;;;;;;25.40;18.32;98913.59;5113497;28;20517;-78
2022/10/13 02:59:12;;;;;;;7.80;5.35;;;;;;;25.29;18.43;98914.97;5109396;28;20456;-78
2022/10/13 03:01:40;;;;;;;10.35;6.05;;;;;;;25.28;18.50;98919.00;5117427;27;20043;-78
2022/10/13 03:04:07;;;;;;;7.15;4.90;;;;;;;25.30;18.15;98917.34;5114562;27;20053;-77
2022/10/13 03:06:33;;;;;;;6.47;3.65;;;;;;;25.22;18.16;98912.25;5115892;28;20115;-77
2022/10/13 03:08:59;;;;;;;6.95;4.50;;;;;;;25.25;18.30;98912.19;5115298;27;20024;-78
2022/10/13 03:11:25;;;;;;;7.50;4.30;;;;;;;25.20;18.53;98915.50;5112281;28;20023;-77
2022/10/13 03:13:51;;;;;;;6.53;4.53;;;;;;;24.94;18.42;98915.44;5107726;28;20079;-77
2022/10/13 03:16:17;;;;;;;5.68;3.85;;;;;;;24.94;18.18;98913.41;5108261;28;20055;-77
2022/10/13 03:18:44;;;;;;;5.80;4.05;;;;;;;25.09;18.24;98908.41;5120539;27;20032;-77
2022/10/13 03:21:10;;;;;;;6.65;4.32;;;;;;;25.17;17.63;98909.91;5108739;27;20028;-77
2022/10/13 03:23:36;;;;;;;6.53;4.63;;;;;;;24.99;17.49;98910.16;5106961;28;20035;-77
2022/10/13 03:26:03;;;;;;;9.25;4.95;;;;;;;24.91;17.36;98903.00;5111039;28;20034;-77
2022/10/13 03:28:29;;;;;;;9.52;4.13;;;;;;;24.72;17.80;98903.59;5108088;28;20032;-77
2022/10/13 03:31:03;;;;;;;10.15;5.35;;;;;;;24.68;17.83;98903.66;5107635;28;20089;-77
2022/10/13 03:33:30;;;;;;;7.75;5.10;;;;;;;24.76;17.94;98900.78;5113033;28;20495;-77
2022/10/13 03:36:01;;;;;;;6.78;5.43;;;;;;;24.44;17.77;98899.09;5110628;28;20104;-77
2022/10/13 03:38:29;;;;;;;6.25;4.32;;;;;;;24.26;18.18;98892.06;5111634;28;20035;-77
2022/10/13 03:40:55;;;;;;;6.90;4.95;;;;;;;24.40;18.17;98889.94;5109421;28;20113;-77
2022/10/13 03:43:22;;;;;;;6.00;4.75;;;;;;;24.31;18.18;98897.25;5106517;28;20038;-77
2022/10/13 03:45:56;;;;;;;8.95;4.97;;;;;;;24.25;18.26;98896.09;5104450;28;21680;-78
2022/10/13 03:48:22;;;;;;;8.27;5.03;;;;;;;24.20;18.52;98894.53;5105565;28;20035;-77
2022/10/13 03:50:48;;;;;;;7.68;4.55;;;;;;;24.05;18.60;98896.66;5123023;27;20035;-77
2022/10/13 03:53:14;;;;;;;7.75;5.13;;;;;;;24.17;18.60;98900.97;5102938;27;20101;-77
2022/10/13 03:55:40;;;;;;;6.70;4.63;;;;;;;24.36;18.13;98899.59;5120193;27;20054;-78
2022/10/13 03:58:06;;;;;;;7.22;4.85;;;;;;;24.37;17.83;98899.19;5106129;28;20020;-78
2022/10/13 04:00:35;;;;;;;5.55;3.58;;;;;;;24.38;17.86;98902.78;5112476;28;20035;-77
2022/10/13 04:03:01;;;;;;;8.27;5.07;;;;;;;24.45;17.52;98902.72;5104185;28;20093;-78
2022/10/13 04:05:27;;;;;;;7.78;4.57;;;;;;;24.58;17.87;98910.19;5109031;28;20126;-77
2022/10/13 04:07:53;;;;;;;8.75;4.68;;;;;;;24.72;17.53;98904.41;5112673;28;20120;-77
2022/10/13 04:10:19;;;;;;;10.32;5.20;;;;;;;24.59;17.28;98906.19;5109871;28;20040;-78
2022/10/13 04:12:47;;;;;;;7.40;5.50;;;;;;;24.02;17.42;98902.28;5107246;28;20035;-77
2022/10/13 04:15:13;;;;;;;11.65;5.95;;;;;;;23.64;17.82;98901.38;5106006;28;20031;-77
2022/10/13 04:17:39;;;;;;;9.07;5.55;;;;;;;23.49;18.39;98911.09;5108720;28;20035;-77
2022/10/13 04:20:06;;;;;;;7.57;4.97;;;;;;;23.58;18.24;98896.63;5107625;28;20118;-77
2022/10/13 04:22:32;;;;;;;9.30;5.25;;;;;;;23.88;18.19;98905.19;5102187;28;20525;-77
2022/10/13 04:24:58;;;;;;;8.85;5.00;;;;;;;23.96;17.90;98893.53;5108743;28;20032;-78
2022/10/13 04:27:25;;;;;;;7.20;4.05;;;;;;;24.00;17.76;98901.91;5109373;28;20433;-78
2022/10/13 04:29:52;;;;;;;7.43;4.72;;;;;;;24.12;18.01;98900.63;5112897;28;20032;-77
2022/10/13 04:32:18;;;;;;;9.60;5.32;;;;;;;24.35;17.82;98890.38;5104514;28;20122;-77
2022/10/13 04:34:44;;;;;;;6.35;4.50;;;;;;;24.52;17.40;98897.81;5110672;28;20114;-78
2022/10/13 04:37:10;;;;;;;6.95;4.18;;;;;;;24.63;17.50;98897.69;5099495;28;20047;-78
2022/10/13 04:39:36;;;;;;;8.55;4.97;;;;;;;24.72;17.46;98895.19;5113415;27;20089;-77
2022/10/13 04:42:04;;;;;;;8.80;4.97;;;;;;;24.78;17.33;98893.56;5111787;28;20097;-78
2022/10/13 04:44:30;;;;;;;7.47;4.80;;;;;;;24.84;16.82;98891.88;5110068;28;20072;-77
2022/10/13 04:46:56;;;;;;;11.20;5.20;;;;;;;24.58;17.15;98887.72;5101166;28;20045;-78
2022/10/13 04:49:23;;;;;;;8.05;4.85;;;;;;;24.56;17.06;98892.16;5112188;28;20055;-78
2022/10/13 04:51:49;;;;;;;14.68;5.38;;;;;;;24.36;17.15;98877.94;5111568;28;20048;-77
2022/10/13 04:54:15;;;;;;;9.25;5.40;;;;;;;24.05;17.36;98884.63;5096957;28;20102;-78
2022/10/13 04:56:44;;;;;;;9.80;5.90;;;;;;;24.08;17.77;98886.66;5099542;28;20035;-78
2022/10/13 04:59:11;;;;;;;7.60;5.10;;;;;;;24.19;17.96;98886.53;5113556;28;20055;-78
2022/10/13 05:01:37;;;;;;;9.73;4.93;;;;;;;24.39;17.47;98893.94;5114366;28;20043;-78
2022/10/13 05:04:04;;;;;;;8.70;5.88;;;;;;;24.41;17.61;98896.34;5101176;28;20028;-78
2022/10/13 05:06:33;;;;;;;11.88;5.90;;;;;;;24.26;17.33;98898.50;5093960;28;20058;-78
2022/10/13 05:09:00;;;;;;;6.60;4.35;;;;;;;24.26;17.18;98895.69;5098531;28;20024;-78
2022/10/13 05:11:27;;;;;;;7.15;4.60;;;;;;;24.22;16.92;98903.34;5110607;28;20107;-78
2022/10/13 05:13:55;;;;;;;9.63;5.03;;;;;;;24.23;16.84;98906.94;5114141;28;20035;-78
2022/10/13 05:16:22;;;;;;;10.15;5.50;;;;;;;24.33;16.90;98903.22;5114456;28;20119;-78
2022/10/13 05:18:49;;;;;;;11.40;6.18;;;;;;;24.40;16.85;98901.16;5112805;28;20027;-78
2022/10/13 05:21:21;;;;;;;9.00;6.15;;;;;;;24.29;16.72;98897.66;5114534;28;20437;-78
2022/10/13 05:23:47;;;;;;;12.32;5.78;;;;;;;23.75;17.31;98895.69;5113889;28;20027;-78
2022/10/13 05:26:16;;;;;;;10.23;5.75;;;;;;;23.12;17.81;98899.69;5113817;28;20486;-78
2022/10/13 05:28:43;;;;;;;10.70;6.20;;;;;;;22.69;18.32;98897.06;5093285;28;20499;-78
2022/10/13 05:31:15;;;;;;;8.10;4.97;;;;;;;22.47;18.57;98897.50;5102523;28;20173;-79
2022/10/13 05:33:42;;;;;;;11.65;7.18;;;;;;;22.63;18.78;98889.47;5112553;28;20093;-78
2022/10/13 05:36:17;;;;;;;14.00;7.22;;;;;;;22.82;18.71;98893.81;5112984;28;20098;-78
2022/10/13 05:38:43;;;;;;;14.18;7.45;;;;;;;22.75;18.71;98894.66;5113586;28;20124;-78
2022/10/13 05:41:12;;;;;;;12.02;7.38;;;;;;;23.01;18.77;98908.13;5113862;28;20081;-78
2022/10/13 05:43:40;;;;;;;10.27;6.80;;;;;;;23.52;18.31;98893.47;5110365;28;20028;-78
2022/10/13 05:46:07;;;;;;;11.35;6.13;;;;;;;24.04;18.02;98899.84;5093476;28;20111;-78
2022/10/13 05:48:34;;;;;;;10.18;6.30;;;;;;;24.42;17.64;98895.13;5105195;28;20103;-77
2022/10/13 05:51:04;;;;;;;11.65;6.70;;;;;;;24.66;17.36;98894.06;5112654;28;20383;-78
2022/10/13 05:53:33;;;;;;;9.77;6.65;;;;;;;24.89;17.24;98899.03;5113604;28;20383;-77
2022/10/13 05:56:05;;;;;;;12.88;8.00;;;;;;;24.75;17.45;98891.53;5113168;28;20070;-77
2022/10/13 05:58:39;;;;;;;14.98;8.60;;;;;;;24.32;18.10;98896.03;5113806;28;20036;-78
2022/10/13 06:01:09;;;;;;;8.05;5.38;;;;;;;24.46;18.23;98899.47;5106475;28;20043;-78
2022/10/13 06:03:36;;;;;;;8.17;5.97;;;;;;;24.71;18.13;98893.59;5103428;28;20044;-78
2022/10/13 06:06:02;;;;;;;10.30;6.32;;;;;;;24.87;18.11;98893.03;5112254;28;20024;-78
2022/10/13 06:08:29;;;;;;;8.30;5.63;;;;;;;24.66;18.60;98892.06;5113497;28;20111;-78
2022/10/13 06:10:55;;;;;;;8.88;5.25;;;;;;;24.85;18.45;98895.47;5113546;28;20442;-78
2022/10/13 06:13:21;;;;;;;7.97;4.40;;;;;;;24.92;18.68;98896.19;5113441;28;20055;-78
2022/10/13 06:15:47;;;;;;;8.52;4.85;;;;;;;25.14;19.05;98903.13;5113419;28;20036;-78
2022/10/13 06:18:13;;;;;;;10.90;5.35;;;;;;;25.50;18.72;98909.09;5105462;28;20070;-78
2022/10/13 06:20:39;;;;;;;10.00;5.60;;;;;;;25.61;18.93;98912.53;5096704;28;20036;-78
2022/10/13 06:23:05;;;;;;;7.60;4.88;;;;;;;25.74;18.84;98915.56;5113302;28;20028;-78
2022/10/13 06:25:31;;;;;;;6.78;4.35;;;;;;;25.91;18.65;98918.06;5113249;28;20030;-78
2022/10/13 06:27:59;;;;;;;9.13;5.28;;;;;;;25.95;18.82;98913.19;5095416;28;20101;-78
2022/10/13 06:30:25;;;;;;;8.43;4.93;;;;;;;26.00;18.85;98920.34;5093227;28;20035;-78
2022/10/13 06:32:54;;;;;;;8.45;5.72;;;;;;;25.91;19.01;98918.06;5101912;28;20035;-78
2022/10/13 06:35:22;;;;;;;9.95;5.50;;;;;;;26.16;18.71;98908.47;5102394;28;20127;-77
2022/10/13 06:37:49;;;;;;;7.45;5.28;;;;;;;26.29;19.31;98913.06;5092792;28;20481;-78
2022/10/13 06:40:15;;;;;;;9.95;4.60;;;;;;;26.47;19.37;98912.72;5111154;28;20031;-78
2022/10/13 06:42:41;;;;;;;6.57;4.40;;;;;;;26.71;19.05;98901.00;5111926;28;20096;-78
2022/10/13 06:45:08;;;;;;;6.15;4.82;;;;;;;26.66;19.29;98911.97;5112309;28;20043;-78
2022/10/13 06:47:34;;;;;;;10.23;6.20;;;;;;;26.64;19.44;98900.31;5113468;28;20115;-78
2022/10/13 06:50:00;;;;;;;8.57;5.47;;;;;;;26.61;19.85;98906.81;5113059;28;20117;-78
2022/10/13 06:52:26;;;;;;;6.72;4.47;;;;;;;26.22;20.64;98904.72;5111314;28;20031;-78
2022/10/13 06:54:52;;;;;;;9.85;4.78;;;;;;;25.96;21.01;98899.91;5113220;28;20107;-78
2022/10/13 06:57:18;;;;;;;8.38;4.95;;;;;;;25.20;21.89;98895.81;5112750;28;20040;-78
2022/10/13 06:59:44;;;;;;;7.30;4.28;;;;;;;25.38;22.37;98895.56;5112766;28;20042;-78
2022/10/13 07:02:10;;;;;;;8.68;5.25;;;;;;;25.50;22.05;98889.41;5095876;28;20046;-78
2022/10/13 07:04:36;;;;;;;8.02;5.07;;;;;;;25.99;21.65;98885.00;5114920;28;20039;-78
2022/10/13 07:07:03;;;;;;;5.57;4.60;;;;;;;26.33;21.03;98884.81;5116518;28;20032;-79
2022/10/13 07:09:30;;;;;;;6.82;5.30;;;;;;;25.65;22.40;98890.00;5104640;28;20028;-78
2022/10/13 07:11:56;;;;;;;7.70;5.05;;;;;;;25.56;22.96;98898.13;5095815;28;20437;-78
2022/10/13 07:14:22;;;;;;;7.93;4.90;;;;;;;26.22;22.21;98896.28;5115208;28;20050;-79
2022/10/13 07:16:48;;;;;;;8.20;4.57;;;;;;;26.45;21.49;98901.09;5116745;28;20031;-79
2022/10/13 07:19:14;;;;;;;7.82;5.13;;;;;;;25.86;22.30;98895.25;5113229;28;20031;-79
2022/10/13 07:21:40;;;;;;;8.88;5.07;;;;;;;26.38;22.24;98893.56;5116298;28;20075;-79
2022/10/13 07:24:06;;;;;;;5.63;4.40;;;;;;;26.94;21.29;98885.25;5116467;28;20053;-79
2022/10/13 07:26:32;;;;;;;6.95;3.78;;;;;;;27.32;21.07;98890.06;5115375;28;20054;-79
2022/10/13 07:28:59;;;;;;;6.00;4.63;;;;;;;27.73;20.56;98883.09;5109287;28;20019;-78
2022/10/13 07:31:25;;;;;;;6.93;3.95;;;;;;;27.68;20.93;98875.94;5109450;28;20052;-79
2022/10/13 07:33:51;;;;;;;6.28;3.92;;;;;;;27.13;21.42;98881.63;5095550;28;20048;-79
2022/10/13 07:36:18;;;;;;;5.43;4.00;;;;;;;26.63;21.96;98877.00;5104937;28;20032;-78
2022/10/13 07:38:45;;;;;;;8.38;4.40;;;;;;;26.46;22.08;98883.78;5115147;28;20102;-79
2022/10/13 07:41:12;;;;;;;6.88;4.18;;;;;;;26.01;23.75;98882.53;5115920;28;20031;-79
2022/10/13 07:43:38;;;;;;;8.52;4.80;;;;;;;24.20;25.21;98879.72;5104307;28;20422;-79
2022/10/13 07:46:06;;;;;;;5.68;4.43;;;;;;;24.29;25.82;98877.22;5095482;28;20062;-79
2022/10/13 07:48:33;;;;;;;9.75;4.22;;;;;;;24.54;25.20;98872.13;5115856;28;20368;-79
2022/10/13 07:51:02;;;;;;;6.15;3.25;;;;;;;26.06;24.16;98873.63;5115704;28;20153;-78
2022/10/13 07:53:28;;;;;;;6.75;4.05;;;;;;;26.22;23.52;98875.78;5115056;28;20036;-79
2022/10/13 07:55:58;;;;;;;6.97;3.80;;;;;;;25.42;24.90;98880.22;5116060;28;20039;-79
2022/10/13 07:58:24;;;;;;;7.97;4.77;;;;;;;24.99;25.41;98867.19;5097312;28;20376;-79
2022/10/13 08:01:09;;;;;;;6.78;3.72;;;;;;;25.14;25.88;98874.22;5106347;28;20034;-79
2022/10/13 08:03:35;;;;;;;6.20;4.63;;;;;;;24.45;26.18;98869.81;5115472;28;20095;-79
2022/10/13 08:06:03;;;;;;;7.82;4.85;;;;;;;25.08;26.27;98859.84;5115230;28;20027;-79
2022/10/13 08:08:30;;;;;;;7.50;4.47;;;;;;;26.72;23.90;98857.47;5114537;28;20118;-79
2022/10/13 08:11:04;;;;;;;5.60;3.80;;;;;;;26.69;23.87;98855.56;5113631;28;20035;-79
2022/10/13 08:13:30;;;;;;;6.10;3.70;;;;;;;26.50;24.74;98847.88;5115642;28;20032;-79
2022/10/13 08:16:00;;;;;;;7.53;4.32;;;;;;;26.44;24.36;98851.66;5115600;28;20062;-79
2022/10/13 08:18:26;;;;;;;6.28;4.38;;;;;;;25.66;25.81;98852.97;5096979;28;20119;-79
2022/10/13 08:20:53;;;;;;;4.88;3.65;;;;;;;25.42;25.85;98845.69;5101202;28;20047;-79
2022/10/13 08:23:19;;;;;;;7.68;5.55;;;;;;;24.33;27.50;98845.09;5115260;28;20035;-79
2022/10/13 08:25:45;;;;;;;5.15;4.25;;;;;;;25.92;26.11;98846.53;5111533;28;20050;-79
2022/10/13 08:28:24;;;;;;;5.68;4.32;;;;;;;26.03;25.00;98847.13;5115305;28;20035;-79
2022/10/13 08:30:52;;;;;;;7.90;4.18;;;;;;;26.03;25.38;98844.31;5102256;28;20487;-79
2022/10/13 08:33:19;;;;;;;5.50;4.28;;;;;;;26.80;24.63;98838.44;5094790;28;20052;-79
2022/10/13 08:35:45;;;;;;;8.32;4.82;;;;;;;25.41;26.41;98835.69;5094134;28;20028;-79
2022/10/13 08:38:12;;;;;;;7.07;3.60;;;;;;;26.15;25.83;98833.69;5104061;28;20034;-79
2022/10/13 08:40:38;;;;;;;7.57;4.53;;;;;;;26.68;25.59;98822.16;5113738;28;20024;-79
2022/10/13 08:43:12;;;;;;;7.68;3.97;;;;;;;27.77;23.55;98830.22;5114763;28;20058;-79
2022/10/13 08:45:38;;;;;;;5.53;4.10;;;;;;;27.53;23.89;98823.94;5114852;28;20034;-79
2022/10/13 08:48:07;;;;;;;5.75;4.20;;;;;;;28.14;23.15;98828.88;5114814;28;20383;-80
2022/10/13 08:50:38;;;;;;;3.72;3.30;;;;;;;27.32;24.31;98821.59;5111903;28;20062;-79
2022/10/13 08:53:18;;;;;;;7.90;3.70;;;;;;;28.58;23.01;98823.19;5094332;28;20492;-79
2022/10/13 08:55:50;;;;;;;5.68;3.28;;;;;;;28.20;22.61;98825.06;5107287;28;20054;-79
2022/10/13 08:58:25;;;;;;;4.90;3.20;;;;;;;28.14;23.85;98824.03;5113678;28;20035;-79
2022/10/13 09:01:09;;;;;;;6.65;3.50;;;;;;;29.28;22.55;98819.53;5114200;28;20035;-79
2022/10/13 09:03:43;;;;;;;4.60;3.58;;;;;;;29.50;22.26;98819.66;5114237;28;20046;-79
2022/10/13 09:06:26;;;;;;;6.25;3.35;;;;;;;29.50;21.95;98811.16;5114370;28;20085;-80
2022/10/13 09:08:58;;;;;;;5.88;2.75;;;;;;;29.24;22.17;98805.47;5113475;28;20039;-79
2022/10/13 09:11:34;;;;;;;4.18;3.10;;;;;;;29.41;21.73;98806.97;5113181;28;20031;-79
2022/10/13 09:14:04;;;;;;;4.95;3.47;;;;;;;28.53;23.48;98797.50;5113382;28;20133;-79
2022/10/13 09:16:38;;;;;;;3.87;2.70;;;;;;;28.97;23.19;98793.00;5114196;28;20028;-80
2022/10/13 09:19:26;;;;;;;7.50;4.50;;;;;;;27.75;23.83;98805.22;5113971;28;20039;-80
2022/10/13 09:22:11;;;;;;;4.45;2.95;;;;;;;28.24;24.04;98802.38;5114128;28;20038;-80
2022/10/13 09:24:38;;;;;;;3.22;2.47;;;;;;;29.70;22.06;98800.38;5110006;28;20016;-80
2022/10/13 09:27:16;;;;;;;3.75;2.47;;;;;;;29.23;22.66;98803.91;5097945;28;20055;-80
2022/10/13 09:29:44;;;;;;;3.55;2.30;;;;;;;29.61;21.91;98798.25;5113406;28;20056;-79
2022/10/13 09:32:24;;;;;;;4.03;2.80;;;;;;;29.64;21.77;98794.47;5093233;28;20052;-80
2022/10/13 09:34:51;;;;;;;4.72;3.00;;;;;;;30.10;21.52;98801.44;5093602;28;20506;-79
2022/10/13 09:37:21;;;;;;;5.78;4.30;;;;;;;28.33;23.07;98794.84;5093790;28;20032;-80
2022/10/13 09:40:01;;;;;;;4.47;2.60;;;;;;;28.80;23.59;98800.00;5093329;28;20368;-79
2022/10/13 09:42:29;;;;;;;4.38;2.30;;;;;;;28.99;22.61;98791.31;5096667;28;20510;-80
2022/10/13 09:45:08;;;;;;;7.78;2.67;;;;;;;29.66;21.87;98796.88;5113919;28;20024;-80
2022/10/13 09:47:34;;;;;;;2.95;2.58;;;;;;;29.63;22.34;98792.91;5112053;28;20053;-80
2022/10/13 09:50:14;;;;;;;3.10;2.35;;;;;;;29.66;20.62;98792.00;5113695;28;20032;-80
2022/10/13 09:52:41;;;;;;;8.45;3.45;;;;;;;29.11;21.92;98784.06;5113950;28;20084;-80
2022/10/13 09:55:28;;;;;;;4.65;2.22;;;;;;;30.41;22.28;98787.41;5112543;28;20049;-80
2022/10/13 09:57:59;;;;;;;4.45;2.70;;;;;;;30.23;21.03;98784.38;5110907;28;20028;-80
2022/10/13 10:00:27;;;;;;;4.03;2.50;;;;;;;30.70;21.40;98774.56;5109570;28;20194;-80
2022/10/13 10:03:01;;;;;;;4.30;2.40;;;;;;;29.88;21.68;98777.94;5112489;28;20039;-80
2022/10/13 10:05:49;;;;;;;2.80;2.50;;;;;;;30.63;20.72;98766.31;5113508;28;20028;-80
2022/10/13 10:08:21;;;;;;;3.75;2.20;;;;;;;30.74;21.97;98763.84;5107247;28;20088;-80
2022/10/13 10:10:47;;;;;;;2.75;2.33;;;;;;;30.25;21.63;98762.03;5112277;28;20035;-80
2022/10/13 10:13:14;;;;;;;2.85;2.00;;;;;;;31.30;20.10;98760.06;5111430;28;20115;-80
2022/10/13 10:15:49;;;;;;;2.40;1.90;;;;;;;31.77;20.86;98754.84;5109959;28;20020;-80
2022/10/13 10:18:40;;;;;;;2.03;1.63;;;;;;;32.50;19.95;98746.41;5093138;28;20036;-80
2022/10/13 10:21:35;;;;;;;2.72;2.10;;;;;;;32.71;19.56;98745.41;5107186;28;20402;-80
2022/10/13 10:24:26;;;;;;;1.88;1.65;;;;;;;33.08;19.75;98746.13;5113473;28;20031;-80
2022/10/13 10:27:29;;;;;;;2.67;1.35;;;;;;;32.58;20.85;98745.59;5093410;28;20077;-80
2022/10/13 10:30:03;;;;;;;3.15;1.80;;;;;;;31.31;19.39;98736.09;5091432;28;20056;-80
2022/10/13 10:32:56;;;;;;;3.83;1.88;;;;;;;29.54;22.75;98741.09;5093468;28;20123;-81
2022/10/13 10:35:41;;;;;;;1.60;1.50;;;;;;;29.13;22.24;98737.13;5095074;28;20090;-80
2022/10/13 10:38:12;;;;;;;2.17;1.45;;;;;;;29.71;23.18;98742.53;5112992;28;20028;-80
2022/10/13 10:40:45;;;;;;;2.65;1.73;;;;;;;30.99;21.67;98730.94;5117146;28;20073;-80
2022/10/13 10:43:35;;;;;;;1.70;1.35;;;;;;;31.40;22.92;98722.72;5117295;28;20039;-80
2022/10/13 10:46:06;;;;;;;2.72;1.48;;;;;;;32.26;21.07;98720.66;5116869;28;20079;-80
2022/10/13 10:48:38;;;;;;;1.70;1.60;;;;;;;33.00;20.34;98724.94;5117101;28;20031;-80
2022/10/13 10:51:11;;;;;;;1.63;1.50;;;;;;;33.48;19.29;98720.94;5101752;28;20024;-80
2022/10/13 10:54:05;;;;;;;2.03;1.27;;;;;;;33.52;19.33;98717.91;5095380;28;20392;-80
2022/10/13 10:56:34;;;;;;;2.35;1.80;;;;;;;32.40;19.82;98713.53;5096537;28;20456;-80
2022/10/13 10:59:17;;;;;;;2.83;1.67;;;;;;;31.80;20.81;98710.53;5115203;28;20036;-80
2022/10/13 11:01:56;;;;;;;5.68;3.35;;;;;;;30.88;21.53;98707.88;5115998;28;20040;-80
2022/10/13 11:04:38;;;;;;;3.13;2.80;;;;;;;30.17;23.07;98706.91;5115613;28;20031;-80
2022/10/13 11:07:09;;;;;;;5.03;3.00;;;;;;;29.61;25.64;98707.69;5112008;28;20024;-80
2022/10/13 11:09:41;;;;;;;;;;;;;;;28.44;26.13;98704.16;5107410;28;20028;-80
2022/10/13 11:12:19;;;;;;;9.23;6.25;;;;;;;27.94;26.57;98699.09;5116377;28;19911;-80
2022/10/13 11:15:07;;;;;;;13.05;8.25;;;;;;;26.38;28.45;98695.66;5116764;28;20032;-80
2022/10/13 11:17:36;;;;;;;8.73;6.40;;;;;;;26.67;29.44;98696.63;5116562;28;20472;-80
2022/10/13 11:20:25;;;;;;;13.38;8.43;;;;;;;27.28;27.36;98688.34;5116408;28;20077;-80
2022/10/13 11:23:20;;;;;;;13.30;9.05;;;;;;;26.21;28.45;98691.22;5116747;27;20034;-80
2022/10/13 11:25:47;;;;;;;15.90;9.85;;;;;;;26.29;31.15;98693.44;5108959;28;20042;-80
2022/10/13 11:28:25;;;;;;;11.90;9.15;;;;;;;26.34;28.93;98681.69;5115225;28;20551;-80
2022/10/13 11:30:54;;;;;;;16.73;9.80;;;;;;;27.86;28.49;98681.59;5116500;28;20028;-80
2022/10/13 11:33:39;;;;;;;13.40;9.57;;;;;;;26.16;29.29;98677.66;5116232;28;20082;-80
2022/10/13 11:36:28;;;;;;;16.35;8.98;;;;;;;26.31;28.92;98668.47;5116522;28;20426;-80
2022/10/13 11:39:21;;;;;;;19.30;10.68;;;;;;;25.36;31.78;98673.09;5114890;28;20036;-80
2022/10/13 11:42:12;;;;;;;13.05;8.88;;;;;;;25.08;30.69;98670.78;5103193;28;20032;-80
2022/10/13 11:44:55;;;;;;;18.58;10.85;;;;;;;25.22;32.22;98660.09;5112833;28;20043;-80
2022/10/13 11:47:24;;;;;;;15.88;9.73;;;;;;;25.88;33.03;98662.88;5115253;28;20051;-80
2022/10/13 11:50:06;;;;;;;13.20;9.45;;;;;;;26.98;30.08;98666.16;5115884;28;20107;-80